Time;durP1;ratioP1;P1;durP2;ratioP2;P2;SDS_P1;SDS_P2;PMS_P1;PMS_P2;Temp;Humidity;BMP_temperature;BMP_pressure;BME280_temperature;BME280_humidity;BME280_pressure;Samples;Min_cycle;Max_cycle;Signal;HPM_P1;HPM_P2
2023/09/01 00:00:03;;;;;;;;;;;21.30;52.20;;;;;;5076882;28;19928;-58
2023/09/01 00:02:29;;;;;;;;;;;21.30;52.20;;;;;;5079764;28;19925;-59
2023/09/01 00:04:56;;;;;;;;;;;21.30;52.20;;;;;;5092697;28;19975;-57
2023/09/01 00:07:24;;;;;;;;;;;21.30;52.20;;;;;;5082407;28;19949;-58
2023/09/01 00:09:51;;;;;;;;;;;21.30;52.20;;;;;;5086108;28;20000;-57
2023/09/01 00:12:18;;;;;;;;;;;21.30;52.20;;;;;;5079766;28;19928;-58
2023/09/01 00:14:44;;;;;;;;;;;21.30;52.20;;;;;;5082191;28;19927;-58
2023/09/01 00:17:12;;;;;;;;;;;21.30;52.20;;;;;;5074455;28;19981;-58
2023/09/01 00:19:39;;;;;;;;;;;21.30;52.20;;;;;;5090886;28;19928;-58
2023/09/01 00:22:06;;;;;;;;;;;21.30;52.20;;;;;;5084126;28;20194;-57
2023/09/01 00:24:34;;;;;;;;;;;21.30;52.80;;;;;;5076335;28;19924;-57
2023/09/01 00:27:01;;;;;;;;;;;21.30;52.20;;;;;;5085035;28;20394;-58
2023/09/01 00:29:28;;;;;;;;;;;21.30;52.20;;;;;;5082383;28;19977;-58
2023/09/01 00:31:55;;;;;;;;;;;21.30;52.20;;;;;;5081604;28;19977;-58
2023/09/01 00:34:22;;;;;;;;;;;21.30;52.10;;;;;;5078401;28;20395;-59
2023/09/01 00:36:50;;;;;;;;;;;21.30;52.10;;;;;;5080422;28;19924;-58
2023/09/01 00:39:17;;;;;;;;;;;21.30;52.10;;;;;;5076361;28;19924;-59
2023/09/01 00:41:45;;;;;;;;;;;21.30;52.10;;;;;;5087443;28;19977;-58
2023/09/01 00:44:13;;;;;;;;;;;21.30;52.10;;;;;;5082794;28;19973;-58
2023/09/01 00:46:43;;;;;;;;;;;21.30;52.00;;;;;;5081030;28;19938;-58
2023/09/01 00:49:10;;;;;;;;;;;21.20;52.00;;;;;;5092944;28;19924;-59
2023/09/01 00:51:37;;;;;;;;;;;21.20;52.00;;;;;;5079859;28;19924;-57
2023/09/01 00:54:04;;;;;;;;;;;21.20;52.00;;;;;;5077789;28;19924;-58
2023/09/01 00:56:31;;;;;;;;;;;21.20;52.00;;;;;;5079864;28;19928;-58
2023/09/01 00:58:59;;;;;;;;;;;21.20;52.00;;;;;;5075052;28;19928;-58
2023/09/01 01:01:25;;;;;;;;;;;21.20;52.00;;;;;;5091733;28;19924;-57
2023/09/01 01:03:52;;;;;;;;;;;21.20;51.90;;;;;;5075064;28;19932;-58
2023/09/01 01:06:20;;;;;;;;;;;21.20;51.90;;;;;;5072825;28;19970;-57
2023/09/01 01:08:50;;;;;;;;;;;21.20;51.90;;;;;;5080754;28;19973;-57
2023/09/01 01:11:18;;;;;;;;;;;21.20;51.90;;;;;;5082754;28;19950;-57
2023/09/01 01:13:45;;;;;;;;;;;21.20;51.90;;;;;;5076968;28;19924;-58
2023/09/01 01:16:13;;;;;;;;;;;21.20;51.90;;;;;;5077964;28;19928;-58
2023/09/01 01:18:40;;;;;;;;;;;21.20;51.90;;;;;;5087945;28;19928;-59
2023/09/01 01:21:09;;;;;;;;;;;21.20;51.90;;;;;;5084768;28;19930;-59
2023/09/01 01:23:37;;;;;;;;;;;21.20;51.90;;;;;;5077584;28;19978;-59
2023/09/01 01:26:05;;;;;;;;;;;21.20;51.80;;;;;;5084340;28;19924;-59
2023/09/01 01:28:33;;;;;;;;;;;21.20;51.80;;;;;;5079378;28;19967;-59
2023/09/01 01:30:59;;;;;;;;;;;21.20;51.90;;;;;;5090671;28;20216;-59
2023/09/01 01:33:28;;;;;;;;;;;21.20;51.80;;;;;;5078613;28;19974;-59
2023/09/01 01:36:00;;;;;;;;;;;21.20;51.80;;;;;;5091549;28;19924;-59
2023/09/01 01:38:28;;;;;;;;;;;21.20;51.80;;;;;;5078198;28;19993;-58
2023/09/01 01:40:58;;;;;;;;;;;21.20;51.80;;;;;;5079143;28;19924;-59
2023/09/01 01:43:25;;;;;;;;;;;21.20;51.80;;;;;;5078418;28;19924;-59
2023/09/01 01:45:52;;;;;;;;;;;21.20;51.80;;;;;;5090935;28;19970;-60
2023/09/01 01:48:19;;;;;;;;;;;21.20;51.80;;;;;;5082345;28;19924;-59
2023/09/01 01:50:45;;;;;;;;;;;21.20;51.80;;;;;;5085429;28;19931;-58
2023/09/01 01:53:13;;;;;;;;;;;21.20;51.80;;;;;;5077532;28;20340;-59
2023/09/01 01:55:39;;;;;;;;;;;21.20;51.70;;;;;;5074955;28;19960;-60
2023/09/01 01:58:07;;;;;;;;;;;21.20;51.70;;;;;;5086097;28;19936;-59
2023/09/01 02:00:35;;;;;;;;;;;21.20;51.70;;;;;;5078993;28;21455;-59
2023/09/01 02:03:01;;;;;;;;;;;21.20;51.70;;;;;;5074678;28;19924;-59
2023/09/01 02:05:28;;;;;;;;;;;21.20;51.70;;;;;;5092013;28;19950;-60
2023/09/01 02:07:55;;;;;;;;;;;21.20;51.70;;;;;;5091892;28;19932;-60
2023/09/01 02:10:22;;;;;;;;;;;21.20;51.70;;;;;;5082516;28;19931;-60
2023/09/01 02:12:48;;;;;;;;;;;21.20;51.60;;;;;;5079763;28;19973;-60
2023/09/01 02:15:17;;;;;;;;;;;21.20;51.60;;;;;;5079072;28;19946;-60
2023/09/01 02:17:44;;;;;;;;;;;21.20;51.60;;;;;;5091615;28;19934;-59
2023/09/01 02:20:17;;;;;;;;;;;21.20;51.60;;;;;;5075931;28;19924;-60
2023/09/01 02:22:44;;;;;;;;;;;21.20;51.60;;;;;;5085753;28;20023;-58
2023/09/01 02:25:12;;;;;;;;;;;21.20;51.60;;;;;;5084487;28;19959;-59
2023/09/01 02:27:40;;;;;;;;;;;21.20;51.80;;;;;;5078636;28;20026;-60
2023/09/01 02:30:08;;;;;;;;;;;21.20;51.60;;;;;;5080201;28;19924;-60
2023/09/01 02:32:36;;;;;;;;;;;21.20;51.60;;;;;;5083473;28;19924;-60
2023/09/01 02:35:05;;;;;;;;;;;21.10;51.50;;;;;;5076948;28;19946;-59
2023/09/01 02:37:32;;;;;;;;;;;21.10;51.50;;;;;;5081756;28;19931;-59
2023/09/01 02:39:59;;;;;;;;;;;21.20;51.60;;;;;;5090899;28;19965;-59
2023/09/01 02:42:26;;;;;;;;;;;21.10;51.50;;;;;;5080277;28;19931;-59
2023/09/01 02:44:53;;;;;;;;;;;21.10;51.50;;;;;;5073220;28;19931;-59
2023/09/01 02:47:19;;;;;;;;;;;21.10;51.50;;;;;;5091699;28;20376;-59
2023/09/01 02:49:48;;;;;;;;;;;21.10;51.50;;;;;;5083175;28;19977;-58
2023/09/01 02:52:14;;;;;;;;;;;21.10;51.50;;;;;;5087921;28;19924;-60
2023/09/01 02:54:41;;;;;;;;;;;21.10;51.50;;;;;;5075159;28;19977;-58
2023/09/01 02:57:08;;;;;;;;;;;21.10;51.50;;;;;;5078692;28;20319;-60
2023/09/01 02:59:35;;;;;;;;;;;21.10;51.50;;;;;;5082504;28;19924;-59
2023/09/01 03:02:02;;;;;;;;;;;21.10;51.50;;;;;;5084621;28;20368;-60
2023/09/01 03:04:30;;;;;;;;;;;21.10;51.50;;;;;;5073669;28;19931;-59
2023/09/01 03:06:58;;;;;;;;;;;21.10;51.50;;;;;;5083479;28;19924;-59
2023/09/01 03:09:25;;;;;;;;;;;21.10;51.60;;;;;;5089488;28;19959;-59
2023/09/01 03:11:52;;;;;;;;;;;21.10;51.50;;;;;;5090936;28;19932;-59
2023/09/01 03:14:18;;;;;;;;;;;21.10;51.60;;;;;;5079093;28;19950;-59
2023/09/01 03:16:45;;;;;;;;;;;21.10;51.50;;;;;;5085296;28;19928;-59
2023/09/01 03:19:12;;;;;;;;;;;21.10;51.60;;;;;;5079575;28;20395;-59
2023/09/01 03:21:39;;;;;;;;;;;21.10;51.60;;;;;;5080770;28;19984;-59
2023/09/01 03:24:08;;;;;;;;;;;21.10;51.60;;;;;;5084393;28;19932;-59
2023/09/01 03:26:34;;;;;;;;;;;21.10;51.60;;;;;;5081784;28;19924;-58
2023/09/01 03:29:01;;;;;;;;;;;21.10;51.60;;;;;;5077548;28;20413;-58
2023/09/01 03:31:28;;;;;;;;;;;21.10;51.60;;;;;;5077904;28;19969;-59
2023/09/01 03:33:55;;;;;;;;;;;21.10;51.60;;;;;;5077695;28;19931;-60
2023/09/01 03:36:21;;;;;;;;;;;21.10;51.60;;;;;;5086861;28;19935;-59
2023/09/01 03:38:48;;;;;;;;;;;21.10;51.60;;;;;;5079346;28;19928;-59
2023/09/01 03:41:16;;;;;;;;;;;21.10;51.60;;;;;;5087885;28;20335;-59
2023/09/01 03:43:43;;;;;;;;;;;21.10;51.60;;;;;;5087907;28;19924;-58
2023/09/01 03:46:10;;;;;;;;;;;21.10;51.60;;;;;;5091244;28;19928;-60
2023/09/01 03:48:37;;;;;;;;;;;21.10;51.60;;;;;;5089992;28;19974;-59
2023/09/01 03:51:09;;;;;;;;;;;21.10;51.60;;;;;;5092408;28;20377;-59
2023/09/01 03:53:36;;;;;;;;;;;21.10;51.60;;;;;;5084128;28;19924;-59
2023/09/01 03:56:06;;;;;;;;;;;21.10;51.60;;;;;;5091009;28;19931;-59
2023/09/01 03:58:34;;;;;;;;;;;21.10;51.60;;;;;;5077606;28;19924;-59
2023/09/01 04:01:01;;;;;;;;;;;21.10;51.60;;;;;;5078278;28;19924;-58
2023/09/01 04:03:28;;;;;;;;;;;21.10;51.50;;;;;;5078761;28;20369;-60
2023/09/01 04:05:56;;;;;;;;;;;21.10;51.50;;;;;;5087009;28;19932;-60
2023/09/01 04:08:23;;;;;;;;;;;21.10;51.50;;;;;;5081259;28;20451;-59
2023/09/01 04:10:50;;;;;;;;;;;21.10;51.50;;;;;;5086900;28;19928;-59
2023/09/01 04:13:16;;;;;;;;;;;21.10;51.50;;;;;;5077103;28;19973;-59
2023/09/01 04:15:45;;;;;;;;;;;21.10;51.50;;;;;;5081595;28;20014;-59
2023/09/01 04:18:13;;;;;;;;;;;21.10;51.50;;;;;;5080804;28;20292;-58
2023/09/01 04:20:40;;;;;;;;;;;21.10;51.50;;;;;;5081400;28;20528;-59
2023/09/01 04:23:07;;;;;;;;;;;21.10;51.50;;;;;;5093705;28;19920;-59
2023/09/01 04:25:34;;;;;;;;;;;21.10;51.50;;;;;;5085343;28;19924;-58
2023/09/01 04:28:00;;;;;;;;;;;21.10;51.50;;;;;;5093952;28;19965;-59
2023/09/01 04:30:27;;;;;;;;;;;21.10;51.50;;;;;;5082392;28;19974;-60
2023/09/01 04:32:55;;;;;;;;;;;21.10;51.50;;;;;;5083737;28;19924;-59
2023/09/01 04:35:22;;;;;;;;;;;21.10;51.50;;;;;;5093405;28;20388;-59
2023/09/01 04:37:49;;;;;;;;;;;21.10;51.50;;;;;;5080782;28;19924;-60
2023/09/01 04:40:15;;;;;;;;;;;21.10;51.50;;;;;;5061503;28;19924;-59
2023/09/01 04:42:42;;;;;;;;;;;21.10;51.40;;;;;;5089260;28;19924;-59
2023/09/01 04:45:09;;;;;;;;;;;21.10;51.40;;;;;;5084218;28;19931;-60
2023/09/01 04:47:36;;;;;;;;;;;21.10;51.40;;;;;;5086117;28;20377;-59
2023/09/01 04:50:05;;;;;;;;;;;21.10;52.00;;;;;;5076002;28;19979;-60
2023/09/01 04:52:32;;;;;;;;;;;21.10;51.40;;;;;;5075363;28;19972;-60
2023/09/01 04:54:59;;;;;;;;;;;21.00;51.30;;;;;;5093385;28;19924;-59
2023/09/01 04:57:25;;;;;;;;;;;21.10;51.40;;;;;;5083326;28;19924;-60
2023/09/01 04:59:52;;;;;;;;;;;21.00;51.30;;;;;;5084470;28;19924;-59
2023/09/01 05:02:19;;;;;;;;;;;21.10;51.40;;;;;;5076317;28;19924;-59
2023/09/01 05:04:46;;;;;;;;;;;21.10;51.40;;;;;;5081739;28;19932;-59
2023/09/01 05:07:14;;;;;;;;;;;21.10;51.40;;;;;;5076349;28;19932;-60
2023/09/01 05:09:40;;;;;;;;;;;21.10;51.30;;;;;;5083597;28;20332;-60
2023/09/01 05:12:07;;;;;;;;;;;21.10;51.30;;;;;;5093046;28;19925;-59
2023/09/01 05:14:34;;;;;;;;;;;21.10;51.40;;;;;;5082789;28;19931;-58
2023/09/01 05:17:01;;;;;;;;;;;21.10;51.40;;;;;;5080027;28;19928;-59
2023/09/01 05:19:27;;;;;;;;;;;21.00;51.30;;;;;;5081041;28;19924;-59
2023/09/01 05:21:55;;;;;;;;;;;21.10;51.40;;;;;;5086476;28;19923;-60
2023/09/01 05:24:23;;;;;;;;;;;21.00;51.30;;;;;;5081597;28;19924;-60
2023/09/01 05:26:50;;;;;;;;;;;21.10;51.40;;;;;;5078043;28;19947;-60
2023/09/01 05:29:16;;;;;;;;;;;21.10;51.40;;;;;;5080247;28;19935;-60
2023/09/01 05:31:43;;;;;;;;;;;21.00;51.30;;;;;;5092337;28;19928;-59
2023/09/01 05:34:10;;;;;;;;;;;21.10;51.40;;;;;;5086185;28;19924;-60
2023/09/01 05:36:37;;;;;;;;;;;21.10;51.40;;;;;;5073903;28;19928;-59
2023/09/01 05:39:04;;;;;;;;;;;21.10;51.50;;;;;;5092202;28;20192;-59
2023/09/01 05:41:32;;;;;;;;;;;21.10;51.50;;;;;;5071622;28;19991;-59
2023/09/01 05:43:59;;;;;;;;;;;21.10;51.50;;;;;;5088224;28;19950;-59
2023/09/01 05:46:26;;;;;;;;;;;21.10;51.50;;;;;;5081117;28;19946;-59
2023/09/01 05:48:53;;;;;;;;;;;21.10;51.50;;;;;;5092747;28;19928;-59
2023/09/01 05:51:19;;;;;;;;;;;21.10;51.40;;;;;;5079325;28;19931;-59
2023/09/01 05:53:46;;;;;;;;;;;21.10;51.40;;;;;;5081441;28;20193;-59
2023/09/01 05:56:13;;;;;;;;;;;21.10;51.40;;;;;;5080578;28;19987;-58
2023/09/01 05:58:41;;;;;;;;;;;21.10;51.40;;;;;;5070307;28;19935;-59
2023/09/01 06:01:08;;;;;;;;;;;21.10;51.40;;;;;;5084831;28;19924;-59
2023/09/01 06:03:34;;;;;;;;;;;21.10;51.40;;;;;;5091598;28;19981;-58
2023/09/01 06:06:01;;;;;;;;;;;21.10;51.40;;;;;;5081509;28;19924;-59
2023/09/01 06:08:28;;;;;;;;;;;21.10;51.40;;;;;;5084762;28;19974;-59
2023/09/01 06:11:02;;;;;;;;;;;21.10;51.40;;;;;;5081637;28;20216;-59
2023/09/01 06:13:29;;;;;;;;;;;21.10;51.40;;;;;;5077546;28;19975;-59
2023/09/01 06:15:57;;;;;;;;;;;21.10;51.40;;;;;;5087276;28;19933;-59
2023/09/01 06:18:24;;;;;;;;;;;21.10;51.40;;;;;;5084771;28;19924;-59
2023/09/01 06:20:51;;;;;;;;;;;21.10;51.30;;;;;;5091001;28;19959;-58
2023/09/01 06:23:18;;;;;;;;;;;21.10;51.30;;;;;;5080722;28;19936;-59
2023/09/01 06:25:45;;;;;;;;;;;21.10;51.30;;;;;;5091132;28;19924;-58
2023/09/01 06:28:12;;;;;;;;;;;21.10;51.30;;;;;;5079131;28;19931;-59
2023/09/01 06:30:40;;;;;;;;;;;21.10;51.30;;;;;;5075976;28;20371;-59
2023/09/01 06:33:09;;;;;;;;;;;21.10;51.30;;;;;;5077187;28;19935;-60
2023/09/01 06:35:35;;;;;;;;;;;21.10;51.30;;;;;;5076709;28;19924;-59
2023/09/01 06:38:02;;;;;;;;;;;21.10;51.30;;;;;;5083319;28;20003;-60
2023/09/01 06:40:29;;;;;;;;;;;21.10;51.40;;;;;;5078197;28;19928;-59
2023/09/01 06:42:55;;;;;;;;;;;21.10;51.40;;;;;;5092000;28;19924;-60
2023/09/01 06:45:22;;;;;;;;;;;21.10;51.40;;;;;;5073796;28;19924;-60
2023/09/01 06:47:54;;;;;;;;;;;21.10;51.40;;;;;;5091868;28;19927;-60
2023/09/01 06:50:23;;;;;;;;;;;21.10;51.50;;;;;;5072498;28;19924;-59
2023/09/01 06:52:50;;;;;;;;;;;21.10;51.50;;;;;;5083659;28;19928;-60
2023/09/01 06:55:17;;;;;;;;;;;21.10;51.50;;;;;;5073358;28;19928;-61
2023/09/01 06:57:44;;;;;;;;;;;21.10;51.50;;;;;;5082361;28;19924;-61
2023/09/01 07:00:11;;;;;;;;;;;21.10;51.60;;;;;;5065417;28;19931;-61
2023/09/01 07:02:38;;;;;;;;;;;21.20;51.60;;;;;;5082268;28;19930;-60
2023/09/01 07:05:05;;;;;;;;;;;21.20;52.20;;;;;;5073471;28;19928;-59
2023/09/01 07:07:33;;;;;;;;;;;21.20;51.70;;;;;;5088169;28;19988;-59
2023/09/01 07:10:00;;;;;;;;;;;21.20;51.60;;;;;;5058966;28;19967;-60
2023/09/01 07:12:27;;;;;;;;;;;21.20;51.60;;;;;;5084301;28;19931;-59
2023/09/01 07:14:53;;;;;;;;;;;21.20;51.70;;;;;;5089133;28;19924;-60
2023/09/01 07:17:20;;;;;;;;;;;21.20;51.70;;;;;;5078133;28;19924;-58
2023/09/01 07:19:47;;;;;;;;;;;21.20;51.60;;;;;;5082881;28;19978;-60
2023/09/01 07:22:14;;;;;;;;;;;21.20;51.60;;;;;;5086552;28;20472;-60
2023/09/01 07:24:42;;;;;;;;;;;21.30;51.70;;;;;;5090455;28;19924;-60
2023/09/01 07:27:09;;;;;;;;;;;21.30;51.70;;;;;;5100290;28;19925;-59
2023/09/01 07:29:35;;;;;;;;;;;21.30;51.70;;;;;;5081664;28;19924;-58
2023/09/01 07:32:03;;;;;;;;;;;21.30;51.70;;;;;;5087903;28;19936;-60
2023/09/01 07:34:30;;;;;;;;;;;21.30;51.70;;;;;;5092532;28;19973;-60
2023/09/01 07:36:56;;;;;;;;;;;21.30;51.60;;;;;;5080208;28;19950;-61
2023/09/01 07:39:23;;;;;;;;;;;21.30;51.70;;;;;;5069600;28;19932;-61
2023/09/01 07:41:51;;;;;;;;;;;21.30;51.60;;;;;;5085822;28;19946;-60
2023/09/01 07:44:20;;;;;;;;;;;21.30;51.70;;;;;;5080483;28;19932;-59
2023/09/01 07:46:46;;;;;;;;;;;21.30;51.70;;;;;;5080972;28;19924;-59
2023/09/01 07:49:13;;;;;;;;;;;21.30;51.60;;;;;;5081142;28;19974;-59
2023/09/01 07:51:40;;;;;;;;;;;21.30;52.20;;;;;;5087040;28;19978;-59
2023/09/01 07:54:07;;;;;;;;;;;21.30;51.60;;;;;;5090612;28;19950;-60
2023/09/01 07:56:34;;;;;;;;;;;21.30;51.60;;;;;;5081151;28;19924;-60
2023/09/01 07:59:03;;;;;;;;;;;21.30;51.60;;;;;;5082706;28;19924;-60
2023/09/01 08:01:29;;;;;;;;;;;21.40;51.70;;;;;;5078100;28;19920;-60
2023/09/01 08:03:59;;;;;;;;;;;21.40;51.70;;;;;;5083138;28;19931;-60
2023/09/01 08:06:26;;;;;;;;;;;21.40;51.70;;;;;;5076470;28;19983;-60
2023/09/01 08:08:52;;;;;;;;;;;21.40;52.30;;;;;;5081497;28;19928;-60
2023/09/01 08:11:19;;;;;;;;;;;21.40;51.70;;;;;;5084573;28;19928;-60
2023/09/01 08:13:46;;;;;;;;;;;21.40;51.70;;;;;;5089325;28;19981;-59
2023/09/01 08:16:17;;;;;;;;;;;21.40;51.70;;;;;;5084915;28;19924;-60
2023/09/01 08:18:44;;;;;;;;;;;21.40;51.70;;;;;;5060961;28;19972;-59
2023/09/01 08:21:11;;;;;;;;;;;21.40;51.70;;;;;;5070700;28;19924;-60
2023/09/01 08:23:40;;;;;;;;;;;21.40;51.60;;;;;;5092782;28;19928;-59
2023/09/01 08:26:07;;;;;;;;;;;21.40;51.60;;;;;;5068195;28;19924;-60
2023/09/01 08:28:33;;;;;;;;;;;21.40;51.60;;;;;;5080633;28;19931;-60
2023/09/01 08:31:01;;;;;;;;;;;21.50;52.20;;;;;;5076431;28;19931;-59
2023/09/01 08:33:29;;;;;;;;;;;21.50;51.60;;;;;;5084562;28;19924;-59
2023/09/01 08:35:56;;;;;;;;;;;21.40;51.60;;;;;;5080136;28;19924;-60
2023/09/01 08:38:22;;;;;;;;;;;21.50;51.60;;;;;;5075436;28;19924;-58
2023/09/01 08:40:50;;;;;;;;;;;21.50;51.70;;;;;;5086232;28;19928;-59
2023/09/01 08:43:17;;;;;;;;;;;21.50;51.70;;;;;;5082841;28;19927;-59
2023/09/01 08:45:44;;;;;;;;;;;21.50;51.70;;;;;;5093110;28;19932;-60
2023/09/01 08:48:10;;;;;;;;;;;21.50;51.70;;;;;;5077052;28;20560;-59
2023/09/01 08:50:39;;;;;;;;;;;21.50;51.60;;;;;;5092914;28;19928;-58
2023/09/01 08:53:05;;;;;;;;;;;21.50;51.60;;;;;;5079148;28;19931;-59
2023/09/01 08:55:32;;;;;;;;;;;21.50;51.60;;;;;;5082740;28;19928;-59
2023/09/01 08:57:59;;;;;;;;;;;21.50;51.60;;;;;;5082373;28;19939;-59
2023/09/01 09:00:26;;;;;;;;;;;21.50;51.50;;;;;;5085876;28;19924;-60
2023/09/01 09:02:52;;;;;;;;;;;21.50;51.50;;;;;;5057392;28;20464;-60
2023/09/01 09:05:19;;;;;;;;;;;21.50;51.50;;;;;;5080220;28;19936;-60
2023/09/01 09:07:48;;;;;;;;;;;21.50;51.60;;;;;;5082637;28;20062;-61
2023/09/01 09:10:15;;;;;;;;;;;21.50;51.60;;;;;;5091179;28;19924;-60
2023/09/01 09:12:42;;;;;;;;;;;21.50;51.60;;;;;;5062076;28;19928;-59
2023/09/01 09:15:09;;;;;;;;;;;21.50;51.60;;;;;;5078681;28;19924;-59
2023/09/01 09:17:40;;;;;;;;;;;21.50;51.60;;;;;;5075463;28;19928;-60
2023/09/01 09:20:07;;;;;;;;;;;21.50;51.60;;;;;;5089660;28;19973;-59
2023/09/01 09:22:39;;;;;;;;;;;21.60;51.70;;;;;;5090924;28;19924;-60
2023/09/01 09:25:08;;;;;;;;;;;21.50;51.60;;;;;;5078353;28;19936;-60
2023/09/01 09:27:35;;;;;;;;;;;21.60;51.70;;;;;;5082193;28;19932;-60
2023/09/01 09:30:02;;;;;;;;;;;21.60;51.70;;;;;;5079931;28;19924;-60
2023/09/01 09:32:28;;;;;;;;;;;21.60;51.70;;;;;;5076020;28;19932;-58
2023/09/01 09:35:05;;;;;;;;;;;21.60;51.70;;;;;;5089494;28;19928;-60
2023/09/01 09:37:32;;;;;;;;;;;21.60;51.70;;;;;;5088661;28;19930;-60
2023/09/01 09:40:11;;;;;;;;;;;21.60;51.70;;;;;;5070993;28;19932;-59
2023/09/01 09:42:38;;;;;;;;;;;21.60;51.80;;;;;;5075221;28;19932;-58
2023/09/01 09:45:06;;;;;;;;;;;21.60;51.80;;;;;;5073308;28;19932;-60
2023/09/01 09:47:33;;;;;;;;;;;21.60;51.80;;;;;;5077215;28;20012;-59
2023/09/01 09:49:59;;;;;;;;;;;21.60;51.70;;;;;;5079994;28;20324;-60
2023/09/01 09:52:26;;;;;;;;;;;21.60;51.80;;;;;;5079520;28;19928;-60
2023/09/01 09:54:57;;;;;;;;;;;21.60;51.90;;;;;;5088119;28;19924;-60
2023/09/01 09:57:25;;;;;;;;;;;21.50;51.70;;;;;;5085930;28;19924;-60
2023/09/01 09:59:54;;;;;;;;;;;21.50;51.80;;;;;;5072948;28;19928;-61
2023/09/01 10:02:22;;;;;;;;;;;21.50;52.20;;;;;;5084129;28;19940;-61
2023/09/01 10:04:49;;;;;;;;;;;21.50;51.90;;;;;;5076558;28;19932;-60
2023/09/01 10:07:16;;;;;;;;;;;21.60;52.00;;;;;;5075592;28;19932;-60
2023/09/01 10:09:43;;;;;;;;;;;21.60;52.00;;;;;;5075548;28;19928;-60
2023/09/01 10:12:10;;;;;;;;;;;21.50;51.90;;;;;;5080508;28;19985;-61
2023/09/01 10:14:39;;;;;;;;;;;21.60;52.00;;;;;;5078741;28;20024;-61
2023/09/01 10:17:06;;;;;;;;;;;21.60;52.00;;;;;;5087123;28;19932;-61
2023/09/01 10:19:34;;;;;;;;;;;21.60;52.00;;;;;;5090806;28;19978;-61
2023/09/01 10:22:00;;;;;;;;;;;21.60;51.90;;;;;;5087038;28;19928;-60
2023/09/01 10:24:27;;;;;;;;;;;21.60;52.00;;;;;;5082342;28;19931;-60
2023/09/01 10:27:06;;;;;;;;;;;21.60;52.00;;;;;;5076165;28;19928;-58
2023/09/01 10:29:34;;;;;;;;;;;21.60;52.00;;;;;;5074735;28;20170;-60
2023/09/01 10:32:16;;;;;;;;;;;21.70;52.00;;;;;;5071132;28;19935;-60
2023/09/01 10:34:49;;;;;;;;;;;21.70;52.00;;;;;;5087365;28;19927;-59
2023/09/01 10:37:26;;;;;;;;;;;21.70;52.00;;;;;;5076567;28;19943;-60
2023/09/01 10:39:52;;;;;;;;;;;21.70;51.90;;;;;;5073759;28;20481;-60
2023/09/01 10:42:23;;;;;;;;;;;21.70;51.90;;;;;;5072871;28;19924;-59
2023/09/01 10:45:11;;;;;;;;;;;21.70;51.90;;;;;;5081043;28;19924;-61
2023/09/01 10:47:52;;;;;;;;;;;21.70;51.90;;;;;;5072121;28;20240;-58
2023/09/01 10:50:18;;;;;;;;;;;21.70;51.90;;;;;;5075904;28;19928;-60
2023/09/01 10:52:46;;;;;;;;;;;21.70;51.90;;;;;;5086523;28;19935;-58
2023/09/01 10:55:13;;;;;;;;;;;21.80;52.00;;;;;;5079798;28;19931;-60
2023/09/01 10:57:41;;;;;;;;;;;21.80;51.90;;;;;;5089667;28;19936;-60
2023/09/01 11:00:24;;;;;;;;;;;21.80;51.90;;;;;;5075114;28;20189;-61
2023/09/01 11:02:52;;;;;;;;;;;21.80;51.90;;;;;;5072938;28;19967;-60
2023/09/01 11:05:38;;;;;;;;;;;21.80;51.90;;;;;;5079246;28;19970;-59
2023/09/01 11:08:12;;;;;;;;;;;21.80;51.90;;;;;;5076575;28;19977;-58
2023/09/01 11:10:39;;;;;;;;;;;21.80;51.90;;;;;;5084062;28;19961;-60
2023/09/01 11:13:13;;;;;;;;;;;21.80;51.80;;;;;;5079290;28;19932;-60
2023/09/01 11:15:43;;;;;;;;;;;21.80;51.80;;;;;;5066471;28;20355;-60
2023/09/01 11:18:17;;;;;;;;;;;21.80;51.70;;;;;;5085985;28;19954;-60
2023/09/01 11:20:43;;;;;;;;;;;21.80;51.80;;;;;;5078099;28;20393;-59
2023/09/01 11:23:10;;;;;;;;;;;21.80;51.70;;;;;;5078270;28;19924;-60
2023/09/01 11:25:37;;;;;;;;;;;21.80;51.70;;;;;;5071959;28;19931;-60
2023/09/01 11:28:04;;;;;;;;;;;21.90;51.70;;;;;;5074538;28;20001;-61
2023/09/01 11:30:31;;;;;;;;;;;21.80;51.70;;;;;;5070811;28;19927;-61
2023/09/01 11:32:58;;;;;;;;;;;21.90;51.70;;;;;;5074756;28;20321;-61
2023/09/01 11:35:26;;;;;;;;;;;21.90;51.70;;;;;;5072981;28;19925;-58
2023/09/01 11:37:53;;;;;;;;;;;21.90;51.60;;;;;;5081887;28;19924;-60
2023/09/01 11:40:20;;;;;;;;;;;21.80;51.50;;;;;;5072775;28;20021;-62
2023/09/01 11:42:47;;;;;;;;;;;21.90;51.50;;;;;;5068723;28;20327;-60
2023/09/01 11:45:14;;;;;;;;;;;21.90;51.50;;;;;;5088445;28;19925;-59
2023/09/01 11:47:40;;;;;;;;;;;21.90;51.50;;;;;;5065815;28;19971;-58
2023/09/01 11:50:08;;;;;;;;;;;21.90;51.50;;;;;;5081301;28;19939;-60
2023/09/01 11:55:36;;;;;;;;;;;21.90;51.20;;;;;;5106091;27;19926;-61
2023/09/01 11:58:03;;;;;;;;;;;21.90;51.20;;;;;;5104012;28;20031;-61
2023/09/01 12:00:31;;;;;;;;;;;21.90;51.10;;;;;;5106762;28;19927;-59
2023/09/01 12:02:59;;;;;;;;;;;21.90;51.20;;;;;;5103777;28;19946;-59
2023/09/01 12:05:28;;;;;;;;;;;21.90;51.10;;;;;;5104194;28;19920;-60
2023/09/01 12:07:55;;;;;;;;;;;21.90;51.20;;;;;;5106416;28;19923;-62
2023/09/01 12:10:22;;;;;;;;;;;21.90;51.20;;;;;;5104788;28;19924;-62
2023/09/01 12:12:50;;;;;;;;;;;21.90;51.20;;;;;;5102437;28;19939;-61
2023/09/01 12:15:17;;;;;;;;;;;21.90;51.20;;;;;;5101960;28;19928;-60
2023/09/01 12:17:44;;;;;;;;;;;21.90;51.10;;;;;;5103985;28;20373;-62
2023/09/01 12:20:10;;;;;;;;;;;21.90;51.10;;;;;;5103073;28;19931;-61
2023/09/01 12:22:37;;;;;;;;;;;21.90;51.10;;;;;;5104460;28;19977;-60
2023/09/01 12:25:04;;;;;;;;;;;21.90;51.10;;;;;;5101749;28;19924;-61
2023/09/01 12:27:31;;;;;;;;;;;21.90;51.00;;;;;;5106458;28;19924;-60
2023/09/01 12:29:59;;;;;;;;;;;21.90;51.00;;;;;;5105023;28;19927;-59
2023/09/01 12:32:28;;;;;;;;;;;21.90;50.90;;;;;;5117728;27;19924;-62
2023/09/01 12:34:54;;;;;;;;;;;21.90;50.90;;;;;;5119338;27;19996;-62
2023/09/01 12:37:21;;;;;;;;;;;21.90;51.40;;;;;;5122025;27;19936;-60
2023/09/01 12:39:48;;;;;;;;;;;21.90;50.80;;;;;;5106576;28;19935;-60
2023/09/01 12:42:15;;;;;;;;;;;21.90;50.60;;;;;;5123590;27;20323;-61
2023/09/01 12:44:41;;;;;;;;;;;21.90;50.60;;;;;;5105693;28;19928;-61
2023/09/01 12:47:09;;;;;;;;;;;21.90;50.50;;;;;;5104715;28;19931;-62
2023/09/01 12:49:37;;;;;;;;;;;21.90;50.40;;;;;;5124518;27;19924;-59
2023/09/01 12:52:04;;;;;;;;;;;21.90;50.30;;;;;;5103090;28;19981;-61
2023/09/01 12:54:31;;;;;;;;;;;21.90;50.20;;;;;;5107974;28;19931;-62
2023/09/01 12:56:57;;;;;;;;;;;21.90;50.00;;;;;;5122902;27;19959;-61
2023/09/01 12:59:24;;;;;;;;;;;21.90;50.00;;;;;;5104291;28;19931;-61
2023/09/01 13:01:51;;;;;;;;;;;21.90;50.00;;;;;;5104880;28;19932;-62
2023/09/01 13:04:19;;;;;;;;;;;21.90;50.00;;;;;;5121374;27;19935;-61
2023/09/01 13:06:46;;;;;;;;;;;21.90;49.90;;;;;;5091349;28;19931;-59
2023/09/01 13:09:12;;;;;;;;;;;21.90;49.80;;;;;;5096050;28;19928;-63
2023/09/01 13:11:39;;;;;;;;;;;21.90;49.90;;;;;;5100805;28;19939;-60
2023/09/01 13:14:06;;;;;;;;;;;21.90;49.80;;;;;;5093190;28;19985;-62
2023/09/01 13:16:33;;;;;;;;;;;21.90;49.60;;;;;;5092142;28;19928;-62
2023/09/01 13:18:59;;;;;;;;;;;21.90;49.60;;;;;;5092138;28;19982;-61
2023/09/01 13:21:27;;;;;;;;;;;21.90;49.60;;;;;;5112876;27;19924;-61
2023/09/01 13:23:54;;;;;;;;;;;21.90;49.80;;;;;;5090755;28;20001;-62
2023/09/01 13:26:21;;;;;;;;;;;21.90;49.60;;;;;;5094655;28;19935;-62
2023/09/01 13:28:48;;;;;;;;;;;22.00;49.60;;;;;;5112497;27;20051;-61
2023/09/01 13:31:15;;;;;;;;;;;21.90;49.30;;;;;;5110176;27;19960;-59
2023/09/01 13:33:42;;;;;;;;;;;21.90;49.10;;;;;;5091064;28;19939;-61
2023/09/01 13:36:09;;;;;;;;;;;21.90;49.00;;;;;;5085284;28;20381;-61
2023/09/01 13:38:38;;;;;;;;;;;21.90;49.00;;;;;;5080052;28;19924;-61
2023/09/01 13:41:07;;;;;;;;;;;21.90;49.20;;;;;;5088962;28;19978;-60
2023/09/01 13:43:34;;;;;;;;;;;21.90;49.10;;;;;;5106509;28;19974;-61
2023/09/01 13:46:17;;;;;;;;;;;21.90;49.00;;;;;;5076218;28;19927;-61
2023/09/01 13:48:44;;;;;;;;;;;21.90;49.00;;;;;;5090204;28;19936;-61
2023/09/01 13:51:10;;;;;;;;;;;21.90;49.00;;;;;;5093302;28;19947;-62
2023/09/01 13:53:39;;;;;;;;;;;21.90;49.00;;;;;;5089525;28;19937;-62
2023/09/01 13:56:06;;;;;;;;;;;21.90;49.00;;;;;;5086742;28;19935;-62
2023/09/01 13:58:32;;;;;;;;;;;21.90;49.10;;;;;;5094784;28;19924;-62
2023/09/01 14:00:59;;;;;;;;;;;21.90;49.20;;;;;;5101781;28;19924;-61
2023/09/01 14:03:26;;;;;;;;;;;21.90;49.20;;;;;;5094918;28;19937;-61
2023/09/01 14:05:53;;;;;;;;;;;21.90;49.20;;;;;;5090487;28;19924;-62
2023/09/01 14:08:20;;;;;;;;;;;21.90;49.20;;;;;;5098574;28;19924;-62
2023/09/01 14:10:54;;;;;;;;;;;21.90;49.10;;;;;;5101305;28;19931;-62
2023/09/01 14:13:20;;;;;;;;;;;21.90;49.20;;;;;;5091492;28;19924;-61
2023/09/01 14:15:47;;;;;;;;;;;21.90;49.20;;;;;;5094057;28;19924;-62
2023/09/01 14:18:14;;;;;;;;;;;21.90;49.10;;;;;;5117583;27;19928;-61
2023/09/01 14:20:41;;;;;;;;;;;21.90;49.00;;;;;;5093327;28;19924;-61